createdAt,value
2023-03-20T00:00:09.394Z,30
2023-03-20T00:01:18.344Z,30
2023-03-20T00:02:27.868Z,31
2023-03-20T00:03:34.701Z,32
2023-03-20T00:04:41.751Z,34
2023-03-20T00:05:48.499Z,34
2023-03-20T00:06:55.310Z,35
2023-03-20T00:08:02.161Z,34
2023-03-20T00:09:09.097Z,36
2023-03-20T00:10:16.079Z,37
2023-03-20T00:11:23.003Z,37
2023-03-20T00:12:29.823Z,36
2023-03-20T00:13:36.619Z,35
2023-03-20T00:14:43.462Z,32
2023-03-20T00:15:50.274Z,34
2023-03-20T00:16:57.152Z,31
2023-03-20T00:18:03.977Z,30
2023-03-20T00:19:15.987Z,28
2023-03-20T00:20:24.278Z,32
2023-03-20T00:21:31.081Z,28
2023-03-20T00:22:37.966Z,29
2023-03-20T00:23:44.773Z,29
2023-03-20T00:24:51.642Z,30
2023-03-20T00:25:58.578Z,28
2023-03-20T00:27:05.410Z,27
2023-03-20T00:28:12.243Z,27
2023-03-20T00:29:29.200Z,29
2023-03-20T00:30:36.543Z,26
2023-03-20T00:31:43.408Z,26
2023-03-20T00:32:50.252Z,26
2023-03-20T00:33:57.084Z,26
2023-03-20T00:35:05.756Z,25
2023-03-20T00:36:20.289Z,27
2023-03-20T00:37:27.170Z,26
2023-03-20T00:38:34.020Z,24
2023-03-20T00:39:40.877Z,25
2023-03-20T00:40:47.667Z,27
2023-03-20T00:41:54.454Z,25
2023-03-20T00:43:04.291Z,24
2023-03-20T00:44:11.084Z,24
2023-03-20T00:45:26.074Z,26
2023-03-20T00:46:32.919Z,23
2023-03-20T00:47:39.851Z,26
2023-03-20T00:48:46.659Z,23
2023-03-20T00:49:53.444Z,26
2023-03-20T00:51:01.270Z,26
2023-03-20T00:52:08.356Z,26
2023-03-20T00:53:17.992Z,26
2023-03-20T00:54:24.845Z,24
2023-03-20T00:55:32.699Z,21
2023-03-20T00:56:39.276Z,22
2023-03-20T00:57:48.236Z,22
2023-03-20T00:58:55.088Z,21
2023-03-20T01:00:01.937Z,23
2023-03-20T01:01:16.757Z,24
2023-03-20T01:02:23.599Z,22
2023-03-20T01:03:30.353Z,23
2023-03-20T01:04:37.151Z,23
2023-03-20T01:05:44.055Z,23
2023-03-20T01:06:50.808Z,24
2023-03-20T01:07:57.670Z,23
2023-03-20T01:09:04.510Z,23
2023-03-20T01:10:11.287Z,21
2023-03-20T01:11:18.112Z,23
2023-03-20T01:12:24.927Z,22
2023-03-20T01:13:31.777Z,22
2023-03-20T01:14:38.665Z,23
2023-03-20T01:15:45.538Z,23
2023-03-20T01:16:52.521Z,22
2023-03-20T01:17:59.252Z,23
2023-03-20T01:19:05.997Z,24
2023-03-20T01:20:15.712Z,25
2023-03-20T01:21:30.780Z,25
2023-03-20T01:22:37.912Z,24
2023-03-20T01:23:47.360Z,25
2023-03-20T01:24:54.075Z,24
2023-03-20T01:26:00.915Z,24
2023-03-20T01:27:07.914Z,25
2023-03-20T01:28:14.801Z,27
2023-03-20T01:29:24.655Z,27
2023-03-20T01:30:31.619Z,27
2023-03-20T01:31:38.446Z,25
2023-03-20T01:32:45.277Z,24
2023-03-20T01:33:52.183Z,23
2023-03-20T01:34:59.097Z,24
2023-03-20T01:36:06.100Z,23
2023-03-20T01:37:15.674Z,23
2023-03-20T01:38:27.540Z,22
2023-03-20T01:39:34.515Z,24
2023-03-20T01:40:42.659Z,24
2023-03-20T01:41:54.505Z,22
2023-03-20T01:43:01.237Z,25
2023-03-20T01:44:08.018Z,24
2023-03-20T01:45:20.669Z,23
2023-03-20T01:46:27.502Z,28
2023-03-20T01:47:34.294Z,22
2023-03-20T01:48:41.174Z,22
2023-03-20T01:49:53.106Z,24
2023-03-20T01:51:08.224Z,25
2023-03-20T01:52:15.091Z,25
2023-03-20T01:53:21.947Z,26
2023-03-20T01:54:28.871Z,22
2023-03-20T01:55:35.983Z,22
2023-03-20T01:56:42.465Z,25
2023-03-20T01:57:55.876Z,22
2023-03-20T01:59:02.691Z,22
2023-03-20T02:00:10.378Z,23
2023-03-20T02:01:19.046Z,21
2023-03-20T02:02:25.809Z,22
2023-03-20T02:03:32.705Z,20
2023-03-20T02:04:39.713Z,23
2023-03-20T02:05:46.612Z,23
2023-03-20T02:06:58.320Z,22
2023-03-20T02:08:05.094Z,20
2023-03-20T02:09:14.713Z,22
2023-03-20T02:10:21.483Z,22
2023-03-20T02:11:28.337Z,20
2023-03-20T02:12:35.174Z,21
2023-03-20T02:13:42.104Z,22
2023-03-20T02:14:49.677Z,24
2023-03-20T02:15:57.276Z,21
2023-03-20T02:17:09.288Z,21
2023-03-20T02:18:16.163Z,20
2023-03-20T02:19:24.867Z,21
2023-03-20T02:20:34.505Z,23
2023-03-20T02:21:51.398Z,27
2023-03-20T02:23:00.786Z,24
2023-03-20T02:24:17.635Z,25
2023-03-20T02:25:32.446Z,25
2023-03-20T02:26:49.416Z,22
2023-03-20T02:27:59.206Z,22
2023-03-20T02:29:13.800Z,24
2023-03-20T02:30:25.603Z,21
2023-03-20T02:31:42.521Z,22
2023-03-20T02:32:57.114Z,26
2023-03-20T02:34:12.271Z,32
2023-03-20T02:35:27.952Z,27
2023-03-20T02:36:39.775Z,28
2023-03-20T02:37:56.695Z,28
2023-03-20T02:39:06.534Z,28
2023-03-20T02:40:23.415Z,30
2023-03-20T02:41:36.388Z,29
2023-03-20T02:42:53.288Z,28
2023-03-20T02:44:10.205Z,28
2023-03-20T02:45:22.085Z,28
2023-03-20T02:46:29.880Z,32
2023-03-20T02:47:44.346Z,34
2023-03-20T02:48:51.098Z,36
2023-03-20T02:50:05.834Z,31
2023-03-20T02:51:17.389Z,32
2023-03-20T02:52:29.302Z,33
2023-03-20T02:53:40.185Z,31
2023-03-20T02:54:55.150Z,31
2023-03-20T02:56:10.098Z,32
2023-03-20T02:57:24.632Z,29
2023-03-20T02:58:34.332Z,28
2023-03-20T02:59:49.041Z,28
2023-03-20T03:00:58.910Z,33
2023-03-20T03:02:13.615Z,34
2023-03-20T03:03:20.410Z,31
2023-03-20T03:04:27.267Z,32
2023-03-20T03:05:35.158Z,35
2023-03-20T03:06:46.852Z,38
2023-03-20T03:07:53.700Z,32
2023-03-20T03:09:01.390Z,37
2023-03-20T03:10:19.544Z,34
2023-03-20T03:11:32.283Z,34
2023-03-20T03:12:39.144Z,36
2023-03-20T03:13:45.959Z,34
2023-03-20T03:14:52.844Z,32
2023-03-20T03:15:59.664Z,33
2023-03-20T03:17:06.539Z,31
2023-03-20T03:18:13.379Z,33
2023-03-20T03:19:23.271Z,31
2023-03-20T03:20:30.067Z,31
2023-03-20T03:21:38.049Z,31
2023-03-20T03:22:44.923Z,27
2023-03-20T03:23:52.606Z,28
2023-03-20T03:24:59.455Z,30
2023-03-20T03:26:06.309Z,26
2023-03-20T03:27:13.067Z,29
2023-03-20T03:28:27.610Z,28
2023-03-20T03:29:35.236Z,29
2023-03-20T03:30:41.983Z,30
2023-03-20T03:31:48.775Z,30
2023-03-20T03:32:55.614Z,33
2023-03-20T03:34:12.472Z,34
2023-03-20T03:35:19.253Z,31
2023-03-20T03:36:26.257Z,33
2023-03-20T03:37:36.170Z,33
2023-03-20T03:38:50.875Z,31
2023-03-20T03:40:07.944Z,33
2023-03-20T03:41:19.885Z,35
2023-03-20T03:42:34.719Z,32
2023-03-20T03:43:46.565Z,30
2023-03-20T03:45:01.548Z,33
2023-03-20T03:46:15.160Z,32
2023-03-20T03:47:30.066Z,31
2023-03-20T03:48:46.974Z,31
2023-03-20T03:49:53.801Z,33
2023-03-20T03:51:05.685Z,34
2023-03-20T03:52:13.715Z,36
2023-03-20T03:53:23.524Z,38
2023-03-20T03:54:33.284Z,39
2023-03-20T03:55:48.197Z,41
2023-03-20T03:56:54.978Z,43
2023-03-20T03:58:01.814Z,39
2023-03-20T03:59:13.650Z,38
2023-03-20T04:00:28.398Z,38
2023-03-20T04:01:35.315Z,38
2023-03-20T04:02:42.045Z,36
2023-03-20T04:03:48.860Z,39
2023-03-20T04:04:55.695Z,32
2023-03-20T04:06:02.524Z,33
2023-03-20T04:07:09.449Z,31
2023-03-20T04:08:16.232Z,34
2023-03-20T04:09:23.035Z,33
2023-03-20T04:10:31.898Z,31
2023-03-20T04:11:38.742Z,31
2023-03-20T04:12:46.430Z,30
2023-03-20T04:13:53.359Z,31
2023-03-20T04:15:02.444Z,30
2023-03-20T04:16:07.104Z,30
2023-03-20T04:17:16.504Z,28
2023-03-20T04:18:23.280Z,30
2023-03-20T04:19:31.147Z,29
2023-03-20T04:20:37.932Z,30
2023-03-20T04:21:44.816Z,29
2023-03-20T04:22:51.756Z,30
2023-03-20T04:23:58.602Z,34
2023-03-20T04:25:05.402Z,32
2023-03-20T04:26:12.346Z,28
2023-03-20T04:27:19.124Z,28
2023-03-20T04:28:25.919Z,30
2023-03-20T04:29:32.692Z,29
2023-03-20T04:30:39.499Z,29
2023-03-20T04:31:46.324Z,32
2023-03-20T04:32:53.221Z,34
2023-03-20T04:34:00.051Z,35
2023-03-20T04:35:06.837Z,38
2023-03-20T04:36:14.512Z,37
2023-03-20T04:37:22.884Z,42
2023-03-20T04:38:30.402Z,45
2023-03-20T04:39:39.018Z,41
2023-03-20T04:40:46.624Z,43
2023-03-20T04:41:53.391Z,39
2023-03-20T04:43:00.302Z,37
2023-03-20T04:44:07.391Z,36
2023-03-20T04:45:15.098Z,36
2023-03-20T04:46:24.022Z,36
2023-03-20T04:47:30.851Z,36
2023-03-20T04:48:37.728Z,47
2023-03-20T04:49:44.585Z,43
2023-03-20T04:50:51.343Z,42
2023-03-20T04:52:03.203Z,41
2023-03-20T04:53:10.547Z,37
2023-03-20T04:54:17.509Z,38
2023-03-20T04:55:24.442Z,38
2023-03-20T04:56:31.412Z,34
2023-03-20T04:57:40.107Z,35
2023-03-20T04:58:46.941Z,34
2023-03-20T04:59:53.731Z,35
2023-03-20T05:01:01.610Z,36
2023-03-20T05:02:08.495Z,39
2023-03-20T05:03:15.532Z,39
2023-03-20T05:04:22.471Z,37
2023-03-20T05:05:29.379Z,37
2023-03-20T05:06:36.188Z,37
2023-03-20T05:07:42.992Z,35
2023-03-20T05:08:50.821Z,33
2023-03-20T05:09:57.714Z,36
2023-03-20T05:11:06.875Z,37
2023-03-20T05:12:15.625Z,36
2023-03-20T05:13:22.665Z,39
2023-03-20T05:14:31.285Z,37
2023-03-20T05:15:38.223Z,38
2023-03-20T05:16:47.142Z,39
2023-03-20T05:17:53.989Z,32
2023-03-20T05:19:00.991Z,37
2023-03-20T05:20:08.846Z,34
2023-03-20T05:21:16.743Z,33
2023-03-20T05:22:27.642Z,34
2023-03-20T05:23:34.447Z,35
2023-03-20T05:24:41.202Z,31
2023-03-20T05:25:48.768Z,35
2023-03-20T05:26:57.115Z,32
2023-03-20T05:28:04.026Z,32
2023-03-20T05:29:10.811Z,35
2023-03-20T05:30:17.574Z,34
2023-03-20T05:31:26.787Z,35
2023-03-20T05:32:33.459Z,34
2023-03-20T05:33:40.385Z,35
2023-03-20T05:34:47.609Z,35
2023-03-20T05:35:54.522Z,37
2023-03-20T05:37:01.381Z,36
2023-03-20T05:38:10.947Z,41
2023-03-20T05:39:17.790Z,42
2023-03-20T05:40:24.676Z,41
2023-03-20T05:41:32.439Z,39
2023-03-20T05:42:39.380Z,41
2023-03-20T05:43:46.311Z,40
2023-03-20T05:44:53.333Z,42
2023-03-20T05:46:00.966Z,43
2023-03-20T05:47:10.108Z,52
2023-03-20T05:48:16.894Z,51
2023-03-20T05:49:24.582Z,51
2023-03-20T05:50:31.574Z,55
2023-03-20T05:51:38.466Z,56
2023-03-20T05:52:45.939Z,58
2023-03-20T05:53:56.254Z,53
2023-03-20T05:55:03.083Z,53
2023-03-20T05:56:13.341Z,48
2023-03-20T05:57:21.072Z,51
2023-03-20T05:58:28.841Z,52
2023-03-20T05:59:35.809Z,51
2023-03-20T06:00:42.687Z,48
2023-03-20T06:01:53.486Z,50
2023-03-20T06:03:00.381Z,52
2023-03-20T06:04:07.225Z,51
2023-03-20T06:05:14.394Z,55
2023-03-20T06:06:22.624Z,50
2023-03-20T06:07:29.541Z,50
2023-03-20T06:08:36.565Z,46
2023-03-20T06:09:43.483Z,42
2023-03-20T06:10:52.735Z,43
2023-03-20T06:12:02.251Z,46
2023-03-20T06:13:09.285Z,44
2023-03-20T06:14:17.098Z,48
2023-03-20T06:15:23.958Z,47
2023-03-20T06:16:30.934Z,47
2023-03-20T06:17:41.671Z,49
2023-03-20T06:18:48.598Z,48
2023-03-20T06:19:55.536Z,52
2023-03-20T06:21:03.694Z,50
2023-03-20T06:22:12.008Z,49
2023-03-20T06:23:20.965Z,51
2023-03-20T06:24:31.207Z,53
2023-03-20T06:25:40.051Z,56
2023-03-20T06:26:50.327Z,51
2023-03-20T06:27:57.222Z,49
2023-03-20T06:29:04.851Z,52
2023-03-20T06:30:12.484Z,53
2023-03-20T06:31:20.504Z,51
2023-03-20T06:32:27.506Z,55
2023-03-20T06:33:34.416Z,56
2023-03-20T06:34:41.312Z,52
2023-03-20T06:35:49.560Z,56
2023-03-20T06:36:56.430Z,56
2023-03-20T06:38:08.699Z,55
2023-03-20T06:39:15.643Z,54
2023-03-20T06:40:23.660Z,57
2023-03-20T06:41:34.821Z,56
2023-03-20T06:42:43.602Z,60
2023-03-20T06:43:51.323Z,56
2023-03-20T06:44:59.984Z,54
2023-03-20T06:46:07.360Z,55
2023-03-20T06:47:14.206Z,53
2023-03-20T06:48:23.782Z,56
2023-03-20T06:49:30.874Z,57
2023-03-20T06:50:37.808Z,56
2023-03-20T06:51:44.657Z,55
2023-03-20T06:52:51.594Z,53
2023-03-20T06:53:58.405Z,64
2023-03-20T06:55:05.165Z,58
2023-03-20T06:56:13.325Z,52
2023-03-20T06:57:20.238Z,51
2023-03-20T06:58:27.262Z,52
2023-03-20T06:59:37.036Z,51
2023-03-20T07:00:44.261Z,47
2023-03-20T07:01:51.097Z,51
2023-03-20T07:03:01.096Z,47
2023-03-20T07:04:06.110Z,52
2023-03-20T07:05:12.973Z,50
2023-03-20T07:06:20.068Z,50
2023-03-20T07:07:26.880Z,47
2023-03-20T07:08:35.165Z,49
2023-03-20T07:09:41.035Z,48
2023-03-20T07:10:47.960Z,50
2023-03-20T07:11:54.849Z,52
2023-03-20T07:13:01.781Z,49
2023-03-20T07:14:08.624Z,50
2023-03-20T07:15:15.486Z,50
2023-03-20T07:16:23.284Z,47
2023-03-20T07:17:30.031Z,47
2023-03-20T07:18:36.929Z,52
2023-03-20T07:19:44.573Z,49
2023-03-20T07:20:51.611Z,51
2023-03-20T07:21:58.603Z,47
2023-03-20T07:23:09.551Z,48
2023-03-20T07:24:16.696Z,49
2023-03-20T07:25:39.598Z,49
2023-03-20T07:26:32.184Z,48
2023-03-20T07:27:40.237Z,46
2023-03-20T07:28:50.145Z,49
2023-03-20T07:29:57.005Z,46
2023-03-20T07:31:03.895Z,49
2023-03-20T07:32:12.893Z,49
2023-03-20T07:33:21.238Z,50
2023-03-20T07:34:28.016Z,48
2023-03-20T07:35:35.107Z,51
2023-03-20T07:36:42.832Z,53
2023-03-20T07:37:49.914Z,56
2023-03-20T07:38:56.753Z,57
2023-03-20T07:40:04.506Z,56
2023-03-20T07:41:11.725Z,56
2023-03-20T07:42:23.317Z,60
2023-03-20T07:43:32.908Z,62
2023-03-20T07:44:39.873Z,65
2023-03-20T07:45:46.759Z,67
2023-03-20T07:46:53.476Z,67
2023-03-20T07:48:00.457Z,59
2023-03-20T07:49:08.049Z,55
2023-03-20T07:50:14.892Z,47
2023-03-20T07:51:21.845Z,45
2023-03-20T07:52:28.715Z,49
2023-03-20T07:53:35.628Z,47
2023-03-20T07:54:43.403Z,46
2023-03-20T07:55:50.314Z,43
2023-03-20T07:56:57.251Z,47
2023-03-20T07:58:04.082Z,47
2023-03-20T07:59:11.146Z,42
2023-03-20T08:00:19.548Z,43
2023-03-20T08:01:26.467Z,44
2023-03-20T08:02:35.855Z,44
2023-03-20T08:03:43.614Z,46
2023-03-20T08:04:51.993Z,48
2023-03-20T08:05:58.813Z,40
2023-03-20T08:07:05.673Z,44
2023-03-20T08:08:12.665Z,44
2023-03-20T08:09:19.484Z,46
2023-03-20T08:10:26.504Z,41
2023-03-20T08:11:34.793Z,42
2023-03-20T08:12:42.801Z,41
2023-03-20T08:13:49.603Z,39
2023-03-20T08:14:58.043Z,43
2023-03-20T08:16:04.933Z,35
2023-03-20T08:17:15.995Z,39
2023-03-20T08:18:20.209Z,41
2023-03-20T08:19:27.033Z,38
2023-03-20T08:20:36.043Z,39
2023-03-20T08:21:42.914Z,38
2023-03-20T08:22:49.840Z,39
2023-03-20T08:23:57.104Z,38
2023-03-20T08:25:04.200Z,41
2023-03-20T08:26:16.888Z,41
2023-03-20T08:27:24.624Z,47
2023-03-20T08:28:46.426Z,46
2023-03-20T08:29:40.675Z,40
2023-03-20T08:30:47.714Z,40
2023-03-20T08:31:54.760Z,38
2023-03-20T08:33:02.904Z,37
2023-03-20T08:34:09.958Z,38
2023-03-20T08:35:32.428Z,39
2023-03-20T08:36:26.382Z,40
2023-03-20T08:37:33.208Z,42
2023-03-20T08:38:41.514Z,41
2023-03-20T08:39:50.031Z,41
2023-03-20T08:40:56.897Z,39
2023-03-20T08:42:04.021Z,41
2023-03-20T08:43:12.930Z,45
2023-03-20T08:44:22.516Z,45
2023-03-20T08:45:29.492Z,48
2023-03-20T08:46:37.390Z,49
2023-03-20T08:47:44.269Z,52
2023-03-20T08:48:51.117Z,51
2023-03-20T08:50:02.080Z,45
2023-03-20T08:51:09.082Z,40
2023-03-20T08:52:17.714Z,38
2023-03-20T08:53:24.595Z,40
2023-03-20T08:54:31.455Z,40
2023-03-20T08:55:40.642Z,37
2023-03-20T08:56:52.908Z,35
2023-03-20T08:58:03.969Z,39
2023-03-20T08:59:10.854Z,33
2023-03-20T09:00:17.741Z,36
2023-03-20T09:01:30.351Z,33
2023-03-20T09:02:33.130Z,33
2023-03-20T09:03:40.246Z,33
2023-03-20T09:04:48.249Z,34
2023-03-20T09:05:56.325Z,31
2023-03-20T09:07:06.977Z,33
2023-03-20T09:08:16.783Z,33
2023-03-20T09:09:23.669Z,33
2023-03-20T09:10:30.639Z,31
2023-03-20T09:11:37.454Z,34
2023-03-20T09:12:44.291Z,33
2023-03-20T09:13:51.191Z,29
2023-03-20T09:14:58.049Z,31
2023-03-20T09:16:06.974Z,34
2023-03-20T09:17:13.728Z,29
2023-03-20T09:18:20.896Z,31
2023-03-20T09:19:30.676Z,38
2023-03-20T09:20:37.989Z,35
2023-03-20T09:21:44.904Z,31
2023-03-20T09:22:54.607Z,31
2023-03-20T09:24:01.673Z,32
2023-03-20T09:25:09.845Z,32
2023-03-20T09:26:20.721Z,31
2023-03-20T09:27:31.364Z,33
2023-03-20T09:28:38.702Z,33
2023-03-20T09:29:49.258Z,32
2023-03-20T09:31:02.991Z,31
2023-03-20T09:32:11.525Z,36
2023-03-20T09:33:21.312Z,35
2023-03-20T09:34:28.354Z,33
2023-03-20T09:35:35.530Z,32
2023-03-20T09:36:43.409Z,34
2023-03-20T09:37:51.160Z,33
2023-03-20T09:38:58.102Z,34
2023-03-20T09:40:05.163Z,32
2023-03-20T09:41:17.311Z,37
2023-03-20T09:42:24.229Z,34
2023-03-20T09:43:41.534Z,34
2023-03-20T09:44:58.840Z,39
2023-03-20T09:46:13.882Z,35
2023-03-20T09:47:29.549Z,38
2023-03-20T09:48:47.147Z,38
2023-03-20T09:49:57.086Z,38
2023-03-20T09:51:10.403Z,36
2023-03-20T09:52:23.494Z,38
2023-03-20T09:53:34.567Z,45
2023-03-20T09:54:53.468Z,42
2023-03-20T09:55:56.067Z,43
2023-03-20T09:57:03.851Z,41
2023-03-20T09:58:10.834Z,43
2023-03-20T09:59:26.746Z,38
2023-03-20T10:00:34.149Z,40
2023-03-20T10:01:40.814Z,41
2023-03-20T10:02:54.623Z,43
2023-03-20T10:04:04.675Z,43
2023-03-20T10:05:13.574Z,40
2023-03-20T10:06:25.598Z,41
2023-03-20T10:07:37.494Z,39
2023-03-20T10:08:45.500Z,39
2023-03-20T10:09:52.360Z,38
2023-03-20T10:11:00.037Z,31
2023-03-20T10:12:17.436Z,34
2023-03-20T10:13:24.476Z,30
2023-03-20T10:14:39.411Z,28
2023-03-20T10:15:56.887Z,27
2023-03-20T10:17:13.945Z,28
2023-03-20T10:18:28.615Z,31
2023-03-20T10:19:38.504Z,23
2023-03-20T10:20:50.758Z,28
2023-03-20T10:22:01.007Z,33
2023-03-20T10:23:15.921Z,40
2023-03-20T10:24:22.735Z,37
2023-03-20T10:25:37.957Z,25
2023-03-20T10:26:50.069Z,35
2023-03-20T10:27:56.997Z,38
2023-03-20T10:29:03.876Z,32
2023-03-20T10:30:10.720Z,31
2023-03-20T10:31:25.482Z,33
2023-03-20T10:32:35.170Z,33
2023-03-20T10:33:45.260Z,36
2023-03-20T10:35:02.606Z,44
2023-03-20T10:36:20.056Z,38
2023-03-20T10:37:37.308Z,35
2023-03-20T10:38:54.814Z,36
2023-03-20T10:40:05.696Z,31
2023-03-20T10:41:22.896Z,29
2023-03-20T10:42:29.783Z,26
2023-03-20T10:43:39.859Z,29
2023-03-20T10:44:44.295Z,35
2023-03-20T10:45:58.923Z,29
2023-03-20T10:47:10.652Z,31
2023-03-20T10:48:17.945Z,33
2023-03-20T10:49:36.709Z,33
2023-03-20T10:50:47.350Z,31
2023-03-20T10:51:54.499Z,31
2023-03-20T10:53:01.436Z,27
2023-03-20T10:54:08.185Z,29
2023-03-20T10:55:18.135Z,29
2023-03-20T10:56:28.765Z,29
2023-03-20T10:57:42.404Z,31
2023-03-20T10:58:52.255Z,30
2023-03-20T11:00:07.299Z,29
2023-03-20T11:01:16.938Z,31
2023-03-20T11:02:23.716Z,30
2023-03-20T11:03:31.399Z,30
2023-03-20T11:04:38.403Z,30
2023-03-20T11:05:52.689Z,31
2023-03-20T11:06:57.453Z,31
2023-03-20T11:08:06.915Z,30
2023-03-20T11:09:17.476Z,30
2023-03-20T11:10:25.303Z,32
2023-03-20T11:11:32.249Z,29
2023-03-20T11:12:39.245Z,30
2023-03-20T11:13:47.106Z,31
2023-03-20T11:14:53.940Z,33
2023-03-20T11:16:00.813Z,29
2023-03-20T11:17:14.304Z,31
2023-03-20T11:18:22.221Z,33
2023-03-20T11:19:31.929Z,34
2023-03-20T11:20:39.072Z,35
2023-03-20T11:21:53.817Z,33
2023-03-20T11:23:00.788Z,34
2023-03-20T11:24:11.655Z,36
2023-03-20T11:25:27.297Z,34
2023-03-20T11:26:37.195Z,31
2023-03-20T11:27:44.046Z,38
2023-03-20T11:28:50.862Z,41
2023-03-20T11:30:00.651Z,43
2023-03-20T11:31:09.343Z,40
2023-03-20T11:32:18.994Z,30
2023-03-20T11:33:34.787Z,32
2023-03-20T11:34:41.646Z,25
2023-03-20T11:35:49.160Z,23
2023-03-20T11:37:09.094Z,25
2023-03-20T11:38:04.752Z,28
2023-03-20T11:39:20.436Z,23
2023-03-20T11:40:27.357Z,25
2023-03-20T11:41:34.289Z,23
2023-03-20T11:42:49.306Z,23
2023-03-20T11:43:59.026Z,19
2023-03-20T11:45:08.783Z,21
2023-03-20T11:46:18.649Z,24
2023-03-20T11:47:25.497Z,22
2023-03-20T11:48:32.308Z,26
2023-03-20T11:49:44.032Z,24
2023-03-20T11:50:55.879Z,22
2023-03-20T11:52:05.782Z,20
2023-03-20T11:53:16.752Z,20
2023-03-20T11:54:28.762Z,21
2023-03-20T11:55:35.756Z,20
2023-03-20T11:56:42.566Z,20
2023-03-20T11:57:58.449Z,32
2023-03-20T11:59:05.357Z,23
2023-03-20T12:00:12.154Z,20
2023-03-20T12:01:24.901Z,21
2023-03-20T12:02:32.728Z,18
2023-03-20T12:03:39.632Z,18
2023-03-20T12:04:51.056Z,17
2023-03-20T12:05:57.995Z,19
2023-03-20T12:07:04.888Z,18
2023-03-20T12:08:15.150Z,18
2023-03-20T12:09:28.104Z,17
2023-03-20T12:10:45.315Z,18
2023-03-20T12:11:52.331Z,19
2023-03-20T12:13:09.492Z,19
2023-03-20T12:14:17.082Z,19
2023-03-20T12:15:29.033Z,20
2023-03-20T12:16:38.179Z,16
2023-03-20T12:17:45.087Z,18
2023-03-20T12:19:00.215Z,17
2023-03-20T12:20:07.083Z,17
2023-03-20T12:21:24.248Z,16
2023-03-20T12:22:37.123Z,16
2023-03-20T12:23:55.403Z,16
2023-03-20T12:25:07.364Z,17
2023-03-20T12:26:21.865Z,16
2023-03-20T12:27:32.947Z,20
2023-03-20T12:28:40.994Z,18
2023-03-20T12:29:47.835Z,17
2023-03-20T12:31:00.352Z,17
2023-03-20T12:32:08.453Z,14
2023-03-20T12:33:18.050Z,16
2023-03-20T12:34:25.848Z,13
2023-03-20T12:35:35.593Z,17
2023-03-20T12:36:42.420Z,18
2023-03-20T12:37:52.699Z,19
2023-03-20T12:38:59.586Z,19
2023-03-20T12:40:06.523Z,24
2023-03-20T12:41:20.033Z,19
2023-03-20T12:42:26.889Z,14
2023-03-20T12:43:38.825Z,16
2023-03-20T12:44:49.351Z,14
2023-03-20T12:46:04.444Z,14
2023-03-20T12:47:15.904Z,15
2023-03-20T12:48:31.060Z,16
2023-03-20T12:49:46.555Z,16
2023-03-20T12:50:58.543Z,17
2023-03-20T12:52:10.524Z,17
2023-03-20T12:53:26.909Z,16
2023-03-20T12:54:42.118Z,18
2023-03-20T12:56:00.302Z,17
2023-03-20T12:57:15.062Z,19
2023-03-20T12:58:24.965Z,18
2023-03-20T12:59:36.941Z,16
2023-03-20T13:00:46.598Z,16
2023-03-20T13:01:56.046Z,20
2023-03-20T13:03:11.964Z,44
2023-03-20T13:04:27.132Z,77
2023-03-20T13:05:45.309Z,274
2023-03-20T13:07:02.511Z,191
2023-03-20T13:08:09.366Z,56
2023-03-20T13:09:16.231Z,17
2023-03-20T13:10:28.339Z,38
2023-03-20T13:11:35.168Z,120
2023-03-20T13:12:48.061Z,273
2023-03-20T13:14:05.169Z,109
2023-03-20T13:15:13.858Z,290
2023-03-20T13:16:22.032Z,305
2023-03-20T13:17:33.924Z,233
2023-03-20T13:18:45.999Z,261
2023-03-20T13:20:04.039Z,255
2023-03-20T13:21:15.850Z,255
2023-03-20T13:22:22.729Z,176
2023-03-20T13:23:32.280Z,170
2023-03-20T13:24:46.813Z,186
2023-03-20T13:25:53.919Z,182
2023-03-20T13:27:10.995Z,159
2023-03-20T13:28:26.028Z,121
2023-03-20T13:29:40.998Z,95
2023-03-20T13:30:47.755Z,143
2023-03-20T13:32:02.447Z,29
2023-03-20T13:33:19.627Z,34
2023-03-20T13:34:34.748Z,41
2023-03-20T13:35:41.644Z,45
2023-03-20T13:36:53.573Z,40
2023-03-20T13:38:05.589Z,29
2023-03-20T13:39:15.173Z,23
2023-03-20T13:40:27.081Z,23
2023-03-20T13:41:36.820Z,25
2023-03-20T13:42:43.643Z,23
2023-03-20T13:44:00.811Z,29
2023-03-20T13:45:07.879Z,30
2023-03-20T13:46:17.566Z,27
2023-03-20T13:47:32.488Z,29
2023-03-20T13:48:40.218Z,27
2023-03-20T13:49:46.961Z,24
2023-03-20T13:51:01.589Z,24
2023-03-20T13:52:11.105Z,28
2023-03-20T13:53:17.901Z,34
2023-03-20T13:54:32.503Z,30
2023-03-20T13:55:49.695Z,30
2023-03-20T13:57:07.055Z,28
2023-03-20T13:58:24.319Z,24
2023-03-20T13:59:41.532Z,23
2023-03-20T14:00:58.769Z,26
2023-03-20T14:02:10.872Z,23
2023-03-20T14:03:37.114Z,26
2023-03-20T14:04:45.114Z,25
2023-03-20T14:05:56.333Z,24
2023-03-20T14:07:05.330Z,24
2023-03-20T14:08:22.143Z,22
2023-03-20T14:09:37.807Z,25
2023-03-20T14:10:44.786Z,24
2023-03-20T14:11:51.800Z,23
2023-03-20T14:12:58.687Z,24
2023-03-20T14:14:14.044Z,24
2023-03-20T14:15:21.395Z,25
2023-03-20T14:16:31.276Z,21
2023-03-20T14:17:38.209Z,24
2023-03-20T14:18:47.798Z,24
2023-03-20T14:19:54.681Z,24
2023-03-20T14:21:01.490Z,23
2023-03-20T14:22:08.480Z,23
2023-03-20T14:23:18.173Z,23
2023-03-20T14:24:25.158Z,22
2023-03-20T14:25:32.025Z,22
2023-03-20T14:26:38.813Z,22
2023-03-20T14:27:45.580Z,22
2023-03-20T14:29:00.722Z,37
2023-03-20T14:30:12.825Z,134
2023-03-20T14:31:24.852Z,179
2023-03-20T14:32:34.608Z,119
2023-03-20T14:33:41.410Z,141
2023-03-20T14:34:48.418Z,102
2023-03-20T14:35:55.276Z,106
2023-03-20T14:37:12.404Z,93
2023-03-20T14:38:28.244Z,103
2023-03-20T14:39:40.373Z,121
2023-03-20T14:40:57.482Z,100
2023-03-20T14:42:07.086Z,67
2023-03-20T14:43:23.196Z,42
2023-03-20T14:44:35.229Z,73
2023-03-20T14:45:49.849Z,87
2023-03-20T14:46:57.463Z,59
2023-03-20T14:48:09.390Z,73
2023-03-20T14:49:22.436Z,69
2023-03-20T14:50:37.679Z,42
2023-03-20T14:51:44.296Z,32
2023-03-20T14:52:51.144Z,23
2023-03-20T14:54:03.450Z,24
2023-03-20T14:55:21.255Z,21
2023-03-20T14:56:28.130Z,21
2023-03-20T14:57:48.918Z,23
2023-03-20T14:58:41.865Z,20
2023-03-20T14:59:53.922Z,22
2023-03-20T15:01:00.933Z,23
2023-03-20T15:02:07.725Z,21
2023-03-20T15:03:19.797Z,22
2023-03-20T15:04:26.723Z,22
2023-03-20T15:05:41.803Z,20
2023-03-20T15:06:48.648Z,20
2023-03-20T15:08:00.644Z,20
2023-03-20T15:09:10.601Z,22
2023-03-20T15:10:19.499Z,19
2023-03-20T15:11:24.329Z,20
2023-03-20T15:12:31.220Z,19
2023-03-20T15:13:38.116Z,20
2023-03-20T15:14:44.921Z,18
2023-03-20T15:15:56.922Z,22
2023-03-20T15:17:08.924Z,21
2023-03-20T15:18:18.753Z,23
2023-03-20T15:19:25.520Z,21
2023-03-20T15:20:32.401Z,24
2023-03-20T15:21:39.248Z,22
2023-03-20T15:22:46.176Z,20
2023-03-20T15:23:55.088Z,24
2023-03-20T15:25:02.889Z,28
2023-03-20T15:26:09.820Z,29
2023-03-20T15:27:16.674Z,20
2023-03-20T15:28:23.535Z,19
2023-03-20T15:29:30.387Z,19
2023-03-20T15:30:37.493Z,17
2023-03-20T15:31:44.102Z,19
2023-03-20T15:32:51.815Z,22
2023-03-20T15:33:58.613Z,18
2023-03-20T15:35:05.495Z,20
2023-03-20T15:36:20.268Z,21
2023-03-20T15:37:27.104Z,17
2023-03-20T15:38:34.071Z,16
2023-03-20T15:39:40.925Z,12
2023-03-20T15:40:51.964Z,11
2023-03-20T15:41:57.555Z,15
2023-03-20T15:43:04.416Z,14
2023-03-20T15:44:13.891Z,16
2023-03-20T15:45:28.830Z,14
2023-03-20T15:46:35.690Z,18
2023-03-20T15:47:43.410Z,21
2023-03-20T15:48:50.575Z,22
2023-03-20T15:49:57.467Z,20
2023-03-20T15:51:04.336Z,19
2023-03-20T15:52:11.196Z,19
2023-03-20T15:53:20.923Z,19
2023-03-20T15:54:33.129Z,17
2023-03-20T15:55:40.903Z,16
2023-03-20T15:56:50.534Z,15
2023-03-20T15:57:58.537Z,15
2023-03-20T15:59:05.346Z,15
2023-03-20T16:00:13.144Z,15
2023-03-20T16:01:20.480Z,14
2023-03-20T16:02:27.207Z,15
2023-03-20T16:03:34.140Z,13
2023-03-20T16:04:40.984Z,15
2023-03-20T16:05:47.861Z,14
2023-03-20T16:06:54.706Z,14
2023-03-20T16:08:01.568Z,15
2023-03-20T16:09:16.630Z,14
2023-03-20T16:10:23.403Z,15
2023-03-20T16:11:35.962Z,16
2023-03-20T16:12:44.000Z,15
2023-03-20T16:13:50.916Z,17
2023-03-20T16:14:57.759Z,18
2023-03-20T16:16:04.640Z,16
2023-03-20T16:17:11.411Z,17
2023-03-20T16:18:18.228Z,18
2023-03-20T16:19:24.999Z,18
2023-03-20T16:20:31.763Z,19
2023-03-20T16:21:38.616Z,22
2023-03-20T16:22:48.189Z,25
2023-03-20T16:23:54.949Z,27
2023-03-20T16:25:01.817Z,29